createdAt,value
2023-02-09T00:00:12.015Z,5.03
2023-02-09T00:02:44.579Z,5.60
2023-02-09T00:05:13.686Z,5.17
2023-02-09T00:07:43.835Z,5.30
2023-02-09T00:10:12.729Z,6.00
2023-02-09T00:12:58.847Z,6.73
2023-02-09T00:15:27.558Z,6.93
2023-02-09T00:17:57.181Z,7.27
2023-02-09T00:20:25.947Z,5.60
2023-02-09T00:22:56.045Z,6.03
2023-02-09T00:25:24.728Z,5.80
2023-02-09T00:27:53.529Z,5.03
2023-02-09T00:30:22.415Z,4.93
2023-02-09T00:32:51.189Z,4.93
2023-02-09T00:35:20.556Z,5.57
2023-02-09T00:37:49.400Z,5.50
2023-02-09T00:40:19.871Z,5.03
2023-02-09T00:42:48.617Z,5.67
2023-02-09T00:45:19.085Z,5.83
2023-02-09T00:47:47.802Z,4.93
2023-02-09T00:50:16.712Z,5.40
2023-02-09T00:52:45.517Z,4.73
2023-02-09T00:55:14.265Z,4.80
2023-02-09T00:57:44.426Z,5.47
2023-02-09T01:00:16.232Z,5.30
2023-02-09T01:02:45.223Z,5.63
2023-02-09T01:05:14.055Z,5.00
2023-02-09T01:07:42.835Z,5.07
2023-02-09T01:10:12.243Z,4.67
2023-02-09T01:12:43.351Z,5.17
2023-02-09T01:15:13.996Z,5.30
2023-02-09T01:17:45.631Z,4.60
2023-02-09T01:20:15.444Z,4.63
2023-02-09T01:22:44.252Z,4.30
2023-02-09T01:25:13.104Z,4.47
2023-02-09T01:27:43.394Z,4.40
2023-02-09T01:30:13.908Z,4.27
2023-02-09T01:32:42.644Z,4.57
2023-02-09T01:35:12.553Z,4.87
2023-02-09T01:37:41.287Z,4.43
2023-02-09T01:40:12.323Z,4.17
2023-02-09T01:42:43.385Z,4.97
2023-02-09T01:45:26.791Z,4.30
2023-02-09T01:48:01.668Z,4.53
2023-02-09T01:50:38.034Z,4.40
2023-02-09T01:53:08.354Z,4.73
2023-02-09T01:55:45.612Z,4.70
2023-02-09T01:58:19.816Z,4.53
2023-02-09T02:00:49.556Z,5.00
2023-02-09T02:03:23.772Z,4.03
2023-02-09T02:05:58.881Z,4.40
2023-02-09T02:08:34.716Z,4.30
2023-02-09T02:11:04.397Z,4.50
2023-02-09T02:13:34.679Z,4.80
2023-02-09T02:16:14.157Z,4.67
2023-02-09T02:19:03.969Z,4.77
2023-02-09T02:22:36.631Z,4.27
2023-02-09T02:26:07.019Z,5.17
2023-02-09T02:28:54.294Z,4.70
2023-02-09T02:32:11.083Z,4.80
2023-02-09T02:34:49.381Z,4.90
2023-02-09T02:37:36.423Z,4.47
2023-02-09T02:40:22.711Z,4.90
2023-02-09T02:42:59.371Z,5.20
2023-02-09T02:45:42.553Z,5.07
2023-02-09T02:48:31.137Z,4.90
2023-02-09T02:51:05.204Z,4.50
2023-02-09T02:53:38.869Z,5.00
2023-02-09T02:56:14.661Z,4.80
2023-02-09T02:58:47.550Z,4.87
2023-02-09T03:01:25.221Z,4.50
2023-02-09T03:03:58.377Z,5.20
2023-02-09T03:06:27.212Z,5.20
2023-02-09T03:08:58.776Z,5.37
2023-02-09T03:11:35.605Z,6.10
2023-02-09T03:14:25.248Z,5.73
2023-02-09T03:17:09.878Z,5.53
2023-02-09T03:19:50.447Z,5.97
2023-02-09T03:22:31.019Z,5.83
2023-02-09T03:25:06.751Z,5.63
2023-02-09T03:27:41.411Z,5.60
2023-02-09T03:30:15.948Z,5.93
2023-02-09T03:32:48.378Z,5.87
2023-02-09T03:35:22.060Z,6.23
2023-02-09T03:37:50.793Z,5.80
2023-02-09T03:40:20.556Z,5.63
2023-02-09T03:42:50.262Z,5.90
2023-02-09T03:45:19.245Z,5.77
2023-02-09T03:47:48.171Z,6.00
2023-02-09T03:50:18.989Z,5.87
2023-02-09T03:52:51.845Z,5.73
2023-02-09T03:55:20.627Z,6.30
2023-02-09T03:57:49.276Z,5.80
2023-02-09T04:00:19.448Z,6.37
2023-02-09T04:02:48.247Z,5.63
2023-02-09T04:05:18.594Z,6.23
2023-02-09T04:07:47.401Z,6.57
2023-02-09T04:10:16.260Z,6.30
2023-02-09T04:12:44.895Z,6.60
2023-02-09T04:15:13.559Z,6.30
2023-02-09T04:17:42.225Z,6.63
2023-02-09T04:20:11.873Z,6.43
2023-02-09T04:22:42.058Z,6.80
2023-02-09T04:25:10.718Z,6.80
2023-02-09T04:27:39.456Z,6.80
2023-02-09T04:30:10.391Z,6.30
2023-02-09T04:32:39.059Z,6.47
2023-02-09T04:35:08.638Z,6.30
2023-02-09T04:37:37.366Z,6.50
2023-02-09T04:40:08.804Z,6.67
2023-02-09T04:42:37.450Z,6.40
2023-02-09T04:45:07.774Z,6.97
2023-02-09T04:47:36.562Z,9.40
2023-02-09T04:50:06.320Z,9.13
2023-02-09T04:52:34.978Z,10.50
2023-02-09T04:55:03.751Z,11.17
2023-02-09T04:58:02.520Z,12.67
2023-02-09T05:00:40.280Z,12.93
2023-02-09T05:03:09.510Z,12.23
2023-02-09T05:05:41.860Z,13.57
2023-02-09T05:08:11.112Z,11.07
2023-02-09T05:10:39.925Z,9.37
2023-02-09T05:13:10.013Z,10.77
2023-02-09T05:15:38.733Z,9.10
2023-02-09T05:18:07.653Z,8.73
2023-02-09T05:20:37.223Z,8.23
2023-02-09T05:23:07.269Z,7.60
2023-02-09T05:25:36.555Z,8.03
2023-02-09T05:28:46.469Z,7.80
2023-02-09T05:31:16.746Z,7.97
2023-02-09T05:33:46.077Z,8.10
2023-02-09T05:36:14.913Z,8.27
2023-02-09T05:38:43.623Z,8.30
2023-02-09T05:41:36.308Z,9.27
2023-02-09T05:44:07.487Z,8.40
2023-02-09T05:46:36.969Z,8.60
2023-02-09T05:49:16.255Z,8.80
2023-02-09T05:51:49.236Z,8.90
2023-02-09T05:54:18.208Z,9.10
2023-02-09T05:56:46.817Z,9.00
2023-02-09T05:59:16.962Z,8.80
2023-02-09T06:01:46.366Z,9.27
2023-02-09T06:04:15.325Z,8.90
2023-02-09T06:06:44.064Z,8.53
2023-02-09T06:09:12.967Z,7.90
2023-02-09T06:11:41.650Z,8.93
2023-02-09T06:14:10.414Z,9.13
2023-02-09T06:16:41.925Z,9.20
2023-02-09T06:19:15.151Z,9.10
2023-02-09T06:21:44.655Z,9.33
2023-02-09T06:24:14.958Z,11.47
2023-02-09T06:26:43.960Z,10.13
2023-02-09T06:29:12.685Z,8.03
2023-02-09T06:31:42.900Z,8.30
2023-02-09T06:34:12.086Z,10.27
2023-02-09T06:36:41.066Z,7.83
2023-02-09T06:39:11.495Z,8.67
2023-02-09T06:41:40.292Z,7.37
2023-02-09T06:44:09.219Z,8.30
2023-02-09T06:46:38.337Z,7.60
2023-02-09T06:49:08.625Z,7.83
2023-02-09T06:51:37.616Z,7.73
2023-02-09T06:54:06.746Z,8.20
2023-02-09T06:56:35.450Z,7.73
2023-02-09T06:59:04.104Z,8.37
2023-02-09T07:01:32.799Z,10.03
2023-02-09T07:04:01.523Z,11.37
2023-02-09T07:06:31.780Z,9.10
2023-02-09T07:09:00.519Z,9.20
2023-02-09T07:11:30.612Z,9.47
2023-02-09T07:13:59.353Z,11.67
2023-02-09T07:16:28.161Z,11.13
2023-02-09T07:18:58.405Z,13.33
2023-02-09T07:21:28.131Z,40.77
2023-02-09T07:23:58.200Z,75.07
2023-02-09T07:26:26.912Z,67.17
2023-02-09T07:28:55.626Z,36.10
2023-02-09T07:31:24.527Z,23.13
2023-02-09T07:33:54.300Z,15.23
2023-02-09T07:36:23.085Z,30.23
2023-02-09T07:38:51.987Z,26.57
2023-02-09T07:41:25.461Z,25.13
2023-02-09T07:43:54.782Z,14.70
2023-02-09T07:46:25.582Z,14.93
2023-02-09T07:48:54.413Z,17.47
2023-02-09T07:51:25.354Z,18.27
2023-02-09T07:53:54.370Z,14.90
2023-02-09T07:56:25.108Z,16.13
2023-02-09T07:58:54.819Z,15.80
2023-02-09T08:01:24.500Z,14.53
2023-02-09T08:03:53.556Z,16.80
2023-02-09T08:06:40.970Z,16.87
2023-02-09T08:09:11.536Z,15.57
2023-02-09T08:11:49.946Z,17.63
2023-02-09T08:14:25.533Z,18.00
2023-02-09T08:17:13.553Z,15.03
2023-02-09T08:19:43.100Z,17.00
2023-02-09T08:22:12.128Z,14.87
2023-02-09T08:24:41.739Z,16.27
2023-02-09T08:27:12.350Z,19.80
2023-02-09T08:29:41.239Z,20.07
2023-02-09T08:32:10.001Z,16.77
2023-02-09T08:34:38.742Z,18.27
2023-02-09T08:37:07.405Z,17.23
2023-02-09T08:39:36.080Z,17.10
2023-02-09T08:42:04.795Z,16.87
2023-02-09T08:44:35.884Z,17.17
2023-02-09T08:47:04.722Z,17.27
2023-02-09T08:49:33.435Z,16.17
2023-02-09T08:52:02.109Z,15.30
2023-02-09T08:54:30.894Z,15.70
2023-02-09T08:56:59.554Z,14.70
2023-02-09T08:59:28.568Z,15.83
2023-02-09T09:01:58.667Z,17.03
2023-02-09T09:04:28.112Z,15.43
2023-02-09T09:06:56.800Z,15.43
2023-02-09T09:09:25.445Z,13.73
2023-02-09T09:11:54.150Z,14.37
2023-02-09T09:14:22.820Z,13.20
2023-02-09T09:16:51.543Z,12.77
2023-02-09T09:19:21.809Z,13.60
2023-02-09T09:21:50.443Z,13.70
2023-02-09T09:24:19.992Z,14.87
2023-02-09T09:26:48.657Z,13.57
2023-02-09T09:29:17.361Z,13.47
2023-02-09T09:31:46.174Z,13.47
2023-02-09T09:34:14.921Z,14.77
2023-02-09T09:36:44.994Z,14.23
2023-02-09T09:39:13.622Z,13.37
2023-02-09T09:41:47.915Z,14.60
2023-02-09T09:44:30.391Z,13.97
2023-02-09T09:47:04.163Z,12.93
2023-02-09T09:49:36.235Z,14.43
2023-02-09T09:52:14.872Z,13.27
2023-02-09T09:54:45.272Z,13.23
2023-02-09T09:57:25.353Z,13.60
2023-02-09T09:59:55.912Z,12.80
2023-02-09T10:02:31.010Z,12.77
2023-02-09T10:05:18.028Z,12.30
2023-02-09T10:07:59.245Z,11.57
2023-02-09T10:10:42.734Z,12.07
2023-02-09T10:13:21.978Z,11.13
2023-02-09T10:15:52.429Z,10.73
2023-02-09T10:18:25.525Z,10.33
2023-02-09T10:20:57.762Z,10.30
2023-02-09T10:23:39.215Z,10.70
2023-02-09T10:33:54.632Z,10.37
2023-02-09T10:36:30.359Z,10.43
2023-02-09T10:39:16.176Z,9.60
2023-02-09T10:41:48.287Z,10.37
2023-02-09T10:47:27.278Z,9.27
2023-02-09T10:50:02.092Z,9.13
2023-02-09T10:52:36.287Z,8.60
2023-02-09T10:55:17.007Z,8.87
2023-02-09T10:57:45.701Z,9.00
2023-02-09T11:00:34.400Z,8.83
2023-02-09T11:03:04.749Z,8.87
2023-02-09T11:05:36.400Z,8.63
2023-02-09T11:08:23.310Z,8.63
2023-02-09T11:11:05.494Z,8.17
2023-02-09T11:13:35.697Z,9.10
2023-02-09T11:16:30.365Z,8.50
2023-02-09T11:19:14.105Z,8.47
2023-02-09T11:21:57.377Z,8.87
2023-02-09T11:24:45.542Z,8.83
2023-02-09T11:27:32.350Z,9.23
2023-02-09T11:30:19.745Z,8.67
2023-02-09T11:32:55.613Z,9.03
2023-02-09T11:35:37.727Z,9.20
2023-02-09T11:38:15.233Z,8.67
2023-02-09T11:40:50.502Z,8.00
2023-02-09T11:43:27.700Z,8.30
2023-02-09T11:46:04.538Z,8.20
2023-02-09T11:48:40.100Z,8.23
2023-02-09T11:51:16.515Z,7.57
2023-02-09T11:53:55.821Z,7.73
2023-02-09T11:56:27.314Z,7.90
2023-02-09T11:59:04.865Z,7.70
2023-02-09T12:01:45.578Z,7.90
2023-02-09T12:04:22.660Z,8.13
2023-02-09T12:06:57.241Z,7.73
2023-02-09T12:09:50.716Z,7.67
2023-02-09T12:12:31.123Z,8.10
2023-02-09T12:15:16.863Z,7.90
2023-02-09T12:17:52.725Z,8.50
2023-02-09T12:20:32.641Z,7.63
2023-02-09T12:23:07.955Z,7.60
2023-02-09T12:25:53.082Z,8.33
2023-02-09T12:28:45.742Z,6.67
2023-02-09T12:31:26.166Z,7.40
2023-02-09T12:34:30.702Z,7.33
2023-02-09T12:37:28.478Z,7.67
2023-02-09T12:40:23.939Z,8.80
2023-02-09T12:43:27.482Z,7.97
2023-02-09T12:46:22.659Z,7.77
2023-02-09T12:49:10.262Z,8.40
2023-02-09T12:51:53.758Z,9.33
2023-02-09T12:54:43.879Z,7.80
2023-02-09T12:57:59.652Z,8.53
2023-02-09T13:00:57.502Z,9.07
2023-02-09T13:03:28.634Z,8.67
2023-02-09T13:06:03.092Z,8.30
2023-02-09T13:08:53.173Z,8.77
2023-02-09T13:11:31.179Z,8.90
2023-02-09T13:14:07.719Z,8.80
2023-02-09T13:17:36.270Z,10.20
2023-02-09T13:20:56.305Z,14.53
2023-02-09T13:23:35.050Z,13.73
2023-02-09T13:26:19.618Z,13.10
2023-02-09T13:28:48.552Z,11.90
2023-02-09T13:31:36.931Z,10.20
2023-02-09T13:34:23.862Z,10.53
2023-02-09T13:37:10.138Z,9.50
2023-02-09T13:39:44.020Z,9.73
2023-02-09T13:42:23.153Z,8.83
2023-02-09T13:44:55.200Z,8.60
2023-02-09T13:47:26.748Z,8.80
2023-02-09T13:50:01.982Z,9.17
2023-02-09T13:52:38.810Z,9.40
2023-02-09T13:55:16.703Z,9.90
2023-02-09T13:57:50.541Z,8.67
2023-02-09T14:00:27.997Z,8.80
2023-02-09T14:03:01.978Z,8.67
2023-02-09T14:05:41.936Z,8.07
2023-02-09T14:08:14.741Z,8.33
2023-02-09T14:10:52.815Z,8.00
2023-02-09T14:13:28.966Z,8.40
2023-02-09T14:16:07.927Z,7.60
2023-02-09T14:18:55.585Z,7.97
2023-02-09T14:21:34.341Z,8.53
2023-02-09T14:24:24.670Z,8.57
2023-02-09T14:26:59.420Z,8.47
2023-02-09T14:29:33.456Z,8.37
2023-02-09T14:32:31.927Z,8.30
2023-02-09T14:35:18.927Z,6.90
2023-02-09T14:37:50.074Z,7.97
2023-02-09T14:40:34.627Z,7.87
2023-02-09T14:43:24.893Z,7.27
2023-02-09T14:46:02.172Z,7.93
2023-02-09T14:48:32.554Z,7.20
2023-02-09T14:51:13.971Z,7.40
2023-02-09T14:53:45.468Z,7.20
2023-02-09T14:56:24.958Z,7.07
2023-02-09T14:58:53.726Z,6.83
2023-02-09T15:01:22.794Z,7.37
2023-02-09T15:03:51.630Z,7.17
2023-02-09T15:06:21.824Z,7.00
2023-02-09T15:08:50.593Z,7.73
2023-02-09T15:11:42.942Z,8.10
2023-02-09T15:14:13.278Z,8.27
2023-02-09T15:16:42.129Z,9.63
2023-02-09T15:19:15.436Z,9.57
2023-02-09T15:21:50.697Z,8.40
2023-02-09T15:24:24.949Z,8.77
2023-02-09T15:26:54.051Z,8.50
2023-02-09T15:29:22.866Z,9.37
2023-02-09T15:31:51.666Z,9.30
2023-02-09T15:34:21.579Z,9.37
2023-02-09T15:36:51.792Z,10.27
2023-02-09T15:39:25.228Z,9.53
2023-02-09T15:42:11.228Z,9.70
2023-02-09T15:45:12.217Z,10.27
2023-02-09T15:47:50.181Z,9.80
2023-02-09T15:50:19.191Z,10.10
2023-02-09T15:52:49.509Z,12.83
2023-02-09T15:55:23.390Z,44.37
2023-02-09T15:57:54.467Z,11.23
2023-02-09T16:00:27.818Z,11.00
2023-02-09T16:03:00.510Z,10.70
2023-02-09T16:05:31.396Z,12.80
2023-02-09T16:08:01.921Z,11.73
2023-02-09T16:10:31.985Z,13.70
2023-02-09T16:13:35.290Z,11.37
2023-02-09T16:16:16.567Z,13.67
2023-02-09T16:18:46.625Z,10.60
2023-02-09T16:21:25.110Z,12.33
2023-02-09T16:23:58.367Z,13.07
2023-02-09T16:26:31.195Z,14.77
2023-02-09T16:29:00.268Z,15.13
2023-02-09T16:31:29.462Z,14.40
2023-02-09T16:33:59.369Z,14.90
2023-02-09T16:36:32.316Z,15.43
2023-02-09T16:39:04.307Z,13.53
2023-02-09T16:41:49.706Z,13.83
2023-02-09T16:44:22.802Z,14.30
2023-02-09T16:46:55.537Z,12.87
2023-02-09T16:49:36.076Z,13.67
2023-02-09T16:52:14.152Z,13.20
2023-02-09T16:54:53.414Z,12.33
2023-02-09T16:57:24.330Z,12.80
2023-02-09T16:59:55.695Z,12.57
2023-02-09T17:02:38.037Z,13.93
2023-02-09T17:11:07.932Z,14.40
2023-02-09T17:13:36.628Z,14.10
2023-02-09T17:16:09.158Z,14.93
2023-02-09T17:18:44.127Z,14.77
2023-02-09T17:21:21.701Z,14.97
2023-02-09T17:23:50.833Z,14.20
2023-02-09T17:26:22.216Z,14.77
2023-02-09T17:28:52.353Z,14.40
2023-02-09T17:31:26.474Z,14.57
2023-02-09T17:34:01.032Z,14.10
2023-02-09T17:36:32.586Z,15.47
2023-02-09T17:39:04.186Z,14.87
2023-02-09T17:41:41.180Z,15.87
2023-02-09T17:44:29.042Z,17.43
2023-02-09T17:47:05.946Z,16.87
2023-02-09T17:49:34.973Z,16.23
2023-02-09T17:52:05.033Z,17.27
2023-02-09T17:54:34.111Z,18.13
2023-02-09T17:57:04.371Z,17.23
2023-02-09T17:59:34.277Z,19.70
2023-02-09T18:02:03.274Z,19.27
2023-02-09T18:04:33.886Z,20.77
2023-02-09T18:07:03.879Z,19.70
2023-02-09T18:09:32.709Z,19.00
2023-02-09T18:12:06.044Z,21.57
2023-02-09T18:14:36.194Z,19.77
2023-02-09T18:17:05.106Z,19.63
2023-02-09T18:19:34.419Z,18.63
2023-02-09T18:22:05.240Z,21.03
2023-02-09T18:24:38.063Z,21.77
2023-02-09T18:27:08.852Z,26.83
2023-02-09T18:29:37.986Z,23.00
2023-02-09T18:32:07.055Z,20.87
2023-02-09T18:34:37.687Z,21.80
2023-02-09T18:37:06.422Z,18.20
2023-02-09T18:39:36.787Z,18.77
2023-02-09T18:42:07.362Z,18.30
2023-02-09T18:44:36.802Z,17.13
2023-02-09T18:47:06.909Z,16.40
2023-02-09T18:49:36.286Z,16.27
2023-02-09T18:52:06.176Z,16.07
2023-02-09T18:54:44.379Z,16.10
2023-02-09T18:57:19.200Z,23.90
2023-02-09T18:59:49.695Z,25.40
2023-02-09T19:02:18.659Z,23.70
2023-02-09T19:04:48.596Z,17.43
2023-02-09T19:07:18.608Z,15.63
2023-02-09T19:10:05.221Z,14.73
2023-02-09T19:12:50.104Z,20.93
2023-02-09T19:15:22.577Z,16.90
2023-02-09T19:18:32.681Z,17.43
2023-02-09T19:21:06.993Z,15.50
2023-02-09T19:23:37.180Z,16.43
2023-02-09T19:26:08.156Z,17.43
2023-02-09T19:28:39.156Z,15.50
2023-02-09T19:31:58.458Z,15.60
2023-02-09T19:35:24.493Z,15.43
2023-02-09T19:38:50.164Z,15.47
2023-02-09T19:42:16.743Z,15.27
2023-02-09T19:44:49.339Z,14.87
2023-02-09T19:47:18.829Z,15.23
2023-02-09T19:49:57.173Z,15.83
2023-02-09T19:52:31.078Z,14.67
2023-02-09T19:55:20.109Z,15.87
2023-02-09T19:57:49.730Z,16.47
2023-02-09T20:00:47.548Z,15.43
2023-02-09T20:03:19.787Z,14.67
2023-02-09T20:05:49.476Z,15.17
2023-02-09T20:08:21.725Z,14.90
2023-02-09T20:10:50.949Z,15.57
2023-02-09T20:13:20.286Z,15.10
2023-02-09T20:15:52.541Z,15.23
2023-02-09T20:18:23.251Z,16.80
2023-02-09T20:20:52.407Z,15.50
2023-02-09T20:23:21.590Z,16.50
2023-02-09T20:25:51.179Z,15.03
2023-02-09T20:28:21.335Z,14.67
2023-02-09T20:30:53.875Z,15.53
2023-02-09T20:33:25.084Z,16.07
2023-02-09T20:35:53.954Z,15.30
2023-02-09T20:38:22.663Z,15.40
2023-02-09T20:40:51.920Z,15.83
2023-02-09T20:43:38.055Z,16.67
2023-02-09T20:46:26.215Z,14.93
2023-02-09T20:48:57.617Z,15.60
2023-02-09T20:51:26.953Z,16.57
2023-02-09T20:53:56.962Z,16.33
2023-02-09T20:56:32.351Z,17.17
2023-02-09T20:59:05.963Z,15.93
2023-02-09T21:01:40.174Z,16.60
2023-02-09T21:04:11.042Z,16.77
2023-02-09T21:06:40.184Z,15.20
2023-02-09T21:09:14.982Z,15.50
2023-02-09T21:11:44.559Z,16.30
2023-02-09T21:14:22.097Z,15.60
2023-02-09T21:17:01.801Z,16.67
2023-02-09T21:19:34.424Z,16.70
2023-02-09T21:22:06.267Z,16.73
2023-02-09T21:24:38.547Z,16.10
2023-02-09T21:27:11.321Z,15.20
2023-02-09T21:29:40.465Z,15.57
2023-02-09T21:32:12.329Z,14.93
2023-02-09T21:34:44.218Z,15.97
2023-02-09T21:37:14.853Z,15.20
2023-02-09T21:39:44.468Z,16.10
2023-02-09T21:42:31.401Z,14.57
2023-02-09T21:45:01.156Z,15.67
2023-02-09T21:47:32.937Z,15.73
2023-02-09T21:50:04.681Z,17.03
2023-02-09T21:52:34.709Z,16.00
2023-02-09T21:55:03.795Z,16.40
2023-02-09T21:57:32.798Z,14.70
2023-02-09T22:00:05.529Z,15.37
2023-02-09T22:02:35.034Z,15.60
2023-02-09T22:05:06.380Z,14.90
2023-02-09T22:07:36.331Z,14.43
2023-02-09T22:10:06.472Z,14.40
2023-02-09T22:12:36.446Z,13.60
2023-02-09T22:15:05.909Z,13.73
2023-02-09T22:17:37.846Z,13.93
2023-02-09T22:20:11.148Z,14.60
2023-02-09T22:22:40.636Z,13.30
2023-02-09T22:25:10.007Z,12.30
2023-02-09T22:27:38.704Z,13.23
2023-02-09T22:30:08.410Z,12.90
2023-02-09T22:32:37.186Z,12.30
2023-02-09T22:35:08.148Z,12.70
2023-02-09T22:37:37.090Z,13.27
2023-02-09T22:40:06.568Z,13.10
2023-02-09T22:42:35.440Z,12.60
2023-02-09T22:45:06.350Z,13.27
2023-02-09T22:47:35.934Z,12.17
2023-02-09T22:50:04.845Z,12.53
2023-02-09T22:52:35.612Z,12.20
2023-02-09T22:55:04.541Z,12.93
2023-02-09T22:57:33.299Z,12.40
2023-02-09T23:00:02.123Z,12.73
2023-02-09T23:02:30.812Z,12.33
2023-02-09T23:04:59.616Z,11.43
2023-02-09T23:07:28.681Z,12.50
2023-02-09T23:09:58.901Z,12.77
2023-02-09T23:12:27.736Z,13.47
2023-02-09T23:14:56.539Z,12.43
2023-02-09T23:17:25.327Z,12.27
2023-02-09T23:19:54.095Z,12.33
2023-02-09T23:22:22.782Z,13.13
2023-02-09T23:24:51.445Z,12.13
2023-02-09T23:27:21.544Z,12.63
2023-02-09T23:43:21.160Z,13.27
2023-02-09T23:45:51.418Z,13.13
2023-02-09T23:48:20.588Z,13.73
2023-02-09T23:50:49.376Z,12.83
2023-02-09T23:53:18.177Z,12.10
2023-02-09T23:55:52.641Z,12.80
2023-02-09T23:58:22.817Z,12.80
